createdAt,value
2023-10-15T00:01:07.247Z,2.20
2023-10-15T00:03:59.101Z,2.80
2023-10-15T00:06:32.266Z,2.80
2023-10-15T00:09:05.770Z,3.00
2023-10-15T00:11:37.696Z,2.60
2023-10-15T00:14:09.459Z,2.50
2023-10-15T00:16:41.124Z,2.30
2023-10-15T00:19:13.933Z,2.90
2023-10-15T00:21:45.855Z,2.90
2023-10-15T00:24:17.532Z,2.60
2023-10-15T00:26:50.305Z,3.80
2023-10-15T00:29:23.604Z,3.20
2023-10-15T00:31:56.170Z,2.50
2023-10-15T00:34:31.518Z,2.60
2023-10-15T00:37:04.786Z,2.70
2023-10-15T00:39:42.887Z,3.20
2023-10-15T00:42:14.566Z,2.30
2023-10-15T00:44:46.928Z,3.40
2023-10-15T00:47:20.828Z,3.40
2023-10-15T00:49:53.076Z,3.00
2023-10-15T00:52:30.697Z,2.90
2023-10-15T00:55:06.325Z,3.30
2023-10-15T00:57:44.185Z,2.50
2023-10-15T01:00:35.447Z,2.10
2023-10-15T01:03:09.063Z,3.50
2023-10-15T01:05:47.424Z,3.10
2023-10-15T01:08:19.110Z,3.70
2023-10-15T01:10:54.842Z,3.30
2023-10-15T01:13:31.747Z,2.80
2023-10-15T01:16:06.174Z,3.70
2023-10-15T01:18:38.688Z,4.50
2023-10-15T01:21:15.196Z,4.30
2023-10-15T01:24:00.192Z,3.20
2023-10-15T01:26:35.745Z,3.60
2023-10-15T01:29:08.687Z,3.30
2023-10-15T01:31:51.984Z,3.40
2023-10-15T01:34:24.074Z,2.50
2023-10-15T01:36:58.322Z,2.80
2023-10-15T01:39:39.300Z,2.90
2023-10-15T01:42:25.716Z,3.10
2023-10-15T01:45:10.406Z,3.30
2023-10-15T01:47:47.461Z,2.90
2023-10-15T01:50:25.600Z,4.00
2023-10-15T01:53:03.070Z,3.50
2023-10-15T01:55:37.454Z,3.80
2023-10-15T01:58:13.742Z,2.60
2023-10-15T02:00:46.515Z,3.90
2023-10-15T02:03:18.498Z,3.50
2023-10-15T02:05:55.578Z,4.50
2023-10-15T02:08:27.940Z,4.00
2023-10-15T02:11:03.561Z,2.20
2023-10-15T02:13:38.397Z,3.00
2023-10-15T02:16:17.019Z,4.30
2023-10-15T02:18:52.458Z,2.70
2023-10-15T02:21:24.900Z,3.10
2023-10-15T02:24:07.739Z,3.40
2023-10-15T02:26:39.566Z,3.70
2023-10-15T02:29:29.041Z,4.00
2023-10-15T02:32:09.169Z,4.20
2023-10-15T02:34:42.305Z,3.30
2023-10-15T02:37:18.433Z,3.50
2023-10-15T02:39:52.206Z,3.10
2023-10-15T02:42:31.995Z,2.50
2023-10-15T02:45:07.724Z,2.70
2023-10-15T02:47:43.728Z,3.20
2023-10-15T02:50:18.979Z,3.10
2023-10-15T02:55:29.044Z,2.90
2023-10-15T02:58:04.028Z,2.70
2023-10-15T03:00:37.562Z,2.70
2023-10-15T03:03:10.299Z,3.10
2023-10-15T03:05:47.496Z,3.80
2023-10-15T03:08:26.016Z,3.10
2023-10-15T03:11:09.184Z,3.30
2023-10-15T03:13:50.910Z,3.10
2023-10-15T03:16:24.539Z,3.40
2023-10-15T03:18:57.875Z,2.40
2023-10-15T03:21:31.697Z,3.70
2023-10-15T03:24:06.124Z,3.30
2023-10-15T03:26:38.414Z,3.60
2023-10-15T03:29:14.570Z,3.50
2023-10-15T03:31:47.908Z,3.00
2023-10-15T03:34:24.067Z,3.60
2023-10-15T03:36:59.983Z,3.80
2023-10-15T03:42:27.443Z,2.90
2023-10-15T03:45:02.486Z,3.50
2023-10-15T03:47:38.475Z,3.80
2023-10-15T03:50:12.054Z,3.70
2023-10-15T03:52:45.620Z,2.00
2023-10-15T03:55:18.881Z,2.40
2023-10-15T03:57:52.975Z,2.40
2023-10-15T04:00:36.552Z,2.50
2023-10-15T04:03:19.770Z,2.40
2023-10-15T04:06:02.344Z,3.20
2023-10-15T04:08:34.193Z,3.50
2023-10-15T04:11:08.155Z,3.80
2023-10-15T04:13:39.716Z,4.10
2023-10-15T04:16:11.169Z,2.90
2023-10-15T04:18:42.875Z,2.50
2023-10-15T04:21:17.561Z,2.90
2023-10-15T04:23:54.291Z,3.40
2023-10-15T04:26:30.627Z,2.90
2023-10-15T04:29:16.920Z,2.70
2023-10-15T04:32:01.551Z,2.30
2023-10-15T04:34:38.639Z,3.20
2023-10-15T04:37:11.427Z,2.90
2023-10-15T04:40:01.833Z,2.40
2023-10-15T04:42:48.366Z,2.90
2023-10-15T04:45:24.919Z,2.20
2023-10-15T04:48:00.921Z,2.80
2023-10-15T04:50:36.867Z,2.30
2023-10-15T04:53:25.496Z,3.50
2023-10-15T04:55:57.910Z,2.50
2023-10-15T04:58:29.803Z,3.60
2023-10-15T05:01:05.661Z,2.50
2023-10-15T05:03:39.443Z,2.80
2023-10-15T05:06:12.741Z,2.60
2023-10-15T05:08:48.976Z,2.70
2023-10-15T05:11:23.090Z,1.90
2023-10-15T05:13:55.304Z,3.00
2023-10-15T05:16:26.861Z,2.30
2023-10-15T05:19:01.853Z,2.60
2023-10-15T05:21:33.782Z,2.50
2023-10-15T05:24:06.560Z,2.80
2023-10-15T05:26:38.057Z,2.20
2023-10-15T05:29:09.634Z,2.50
2023-10-15T05:31:41.849Z,2.90
2023-10-15T05:34:14.138Z,2.90
2023-10-15T05:36:45.712Z,2.70
2023-10-15T05:39:19.633Z,3.00
2023-10-15T05:41:51.313Z,3.00
2023-10-15T05:44:23.317Z,3.00
2023-10-15T05:46:55.078Z,2.60
2023-10-15T05:49:26.791Z,2.10
2023-10-15T05:51:58.303Z,2.90
2023-10-15T05:54:29.990Z,2.40
2023-10-15T05:57:03.692Z,1.80
2023-10-15T05:59:35.309Z,1.60
2023-10-15T06:02:07.275Z,1.60
2023-10-15T06:04:40.133Z,2.70
2023-10-15T06:07:11.866Z,2.80
2023-10-15T06:09:45.902Z,2.40
2023-10-15T06:12:17.771Z,2.60
2023-10-15T06:14:49.827Z,2.30
2023-10-15T06:17:22.246Z,3.10
2023-10-15T06:19:55.054Z,2.80
2023-10-15T06:22:27.634Z,2.20
2023-10-15T06:24:59.709Z,3.30
2023-10-15T06:27:31.210Z,2.50
2023-10-15T06:30:06.017Z,3.20
2023-10-15T06:32:38.964Z,3.20
2023-10-15T06:35:15.916Z,2.70
2023-10-15T06:37:47.910Z,2.50
2023-10-15T06:40:23.835Z,3.00
2023-10-15T06:43:01.744Z,3.00
2023-10-15T06:45:34.440Z,3.30
2023-10-15T06:48:07.915Z,2.50
2023-10-15T06:50:39.801Z,2.60
2023-10-15T06:53:11.426Z,1.90
2023-10-15T06:55:47.240Z,2.30
2023-10-15T06:58:19.293Z,2.80
2023-10-15T07:00:51.008Z,2.40
2023-10-15T07:03:22.978Z,2.20
2023-10-15T07:05:55.636Z,2.90
2023-10-15T07:08:27.560Z,2.60
2023-10-15T07:11:01.643Z,2.80
2023-10-15T07:13:33.349Z,2.50
2023-10-15T07:16:07.432Z,2.70
2023-10-15T07:18:40.748Z,2.90
2023-10-15T07:21:12.770Z,1.40
2023-10-15T07:23:44.456Z,2.40
2023-10-15T07:26:16.425Z,2.40
2023-10-15T07:28:48.065Z,2.50
2023-10-15T07:31:20.764Z,1.80
2023-10-15T07:33:54.385Z,2.60
2023-10-15T07:36:26.038Z,2.80
2023-10-15T07:38:57.844Z,3.40
2023-10-15T07:41:30.507Z,2.80
2023-10-15T07:44:03.522Z,2.80
2023-10-15T07:46:35.831Z,2.10
2023-10-15T07:49:08.367Z,3.10
2023-10-15T07:51:40.428Z,3.00
2023-10-15T07:54:12.267Z,2.70
2023-10-15T07:56:44.533Z,4.00
2023-10-15T07:59:16.208Z,3.30
2023-10-15T08:01:49.336Z,3.30
2023-10-15T08:04:21.057Z,3.50
2023-10-15T08:06:53.496Z,2.90
2023-10-15T08:09:26.804Z,2.40
2023-10-15T08:11:58.855Z,3.40
2023-10-15T08:14:30.633Z,3.40
2023-10-15T08:17:02.208Z,3.50
2023-10-15T08:19:34.021Z,3.10
2023-10-15T08:22:05.842Z,2.30
2023-10-15T08:24:39.473Z,2.90
2023-10-15T08:27:15.126Z,2.20
2023-10-15T08:29:47.224Z,2.00
2023-10-15T08:32:19.339Z,2.20
2023-10-15T08:34:51.752Z,1.80
2023-10-15T08:37:23.992Z,1.80
2023-10-15T08:39:55.999Z,1.60
2023-10-15T08:42:32.998Z,1.70
2023-10-15T08:45:07.762Z,2.10
2023-10-15T08:50:12.355Z,2.50
2023-10-15T08:52:45.745Z,1.60
2023-10-15T08:55:20.097Z,1.70
2023-10-15T08:57:55.658Z,1.80
2023-10-15T09:00:32.596Z,1.40
2023-10-15T09:03:06.081Z,1.80
2023-10-15T09:05:39.040Z,1.30
2023-10-15T09:08:14.765Z,1.40
2023-10-15T09:10:46.620Z,1.20
2023-10-15T09:13:19.891Z,1.40
2023-10-15T09:15:53.803Z,1.90
2023-10-15T09:18:29.895Z,1.20
2023-10-15T09:21:04.934Z,1.40
2023-10-15T09:23:38.205Z,1.70
2023-10-15T09:26:11.246Z,1.90
2023-10-15T09:28:43.144Z,1.70
2023-10-15T09:31:14.950Z,1.60
2023-10-15T09:33:47.025Z,1.80
2023-10-15T09:36:21.247Z,2.00
2023-10-15T09:38:57.702Z,2.80
2023-10-15T09:41:29.851Z,2.40
2023-10-15T09:44:02.510Z,3.10
2023-10-15T09:46:34.671Z,1.70
2023-10-15T09:49:06.800Z,1.50
2023-10-15T09:51:38.933Z,1.40
2023-10-15T09:54:12.289Z,1.30
2023-10-15T09:56:44.845Z,1.50
2023-10-15T09:59:17.187Z,1.30
2023-10-15T10:01:55.341Z,1.50
2023-10-15T10:04:53.480Z,1.50
2023-10-15T10:07:39.736Z,1.40
2023-10-15T10:10:33.016Z,1.50
2023-10-15T10:13:24.026Z,1.80
2023-10-15T10:15:59.250Z,1.10
2023-10-15T10:18:34.661Z,1.40
2023-10-15T10:21:12.979Z,1.60
2023-10-15T10:23:49.047Z,1.50
2023-10-15T10:26:25.353Z,1.40
2023-10-15T10:29:00.799Z,1.50
2023-10-15T10:31:32.625Z,1.50
2023-10-15T10:34:05.743Z,1.80
2023-10-15T10:36:42.324Z,1.30
2023-10-15T10:39:19.574Z,1.50
2023-10-15T10:41:59.818Z,1.30
2023-10-15T10:44:44.229Z,1.20
2023-10-15T10:47:25.344Z,1.70
2023-10-15T10:50:01.112Z,1.20
2023-10-15T10:52:36.887Z,1.40
2023-10-15T10:55:33.381Z,1.80
2023-10-15T10:58:24.658Z,1.40
2023-10-15T11:01:00.507Z,1.70
2023-10-15T11:03:33.011Z,1.60
2023-10-15T11:06:08.583Z,1.80
2023-10-15T11:08:40.598Z,1.70
2023-10-15T11:11:12.252Z,1.30
2023-10-15T11:13:44.606Z,1.90
2023-10-15T11:16:18.019Z,1.60
2023-10-15T11:18:50.629Z,1.40
2023-10-15T11:21:23.347Z,1.20
2023-10-15T11:23:57.788Z,1.30
2023-10-15T11:26:32.491Z,1.50
2023-10-15T11:29:04.761Z,1.80
2023-10-15T11:31:36.736Z,1.50
2023-10-15T11:34:09.585Z,2.20
2023-10-15T11:36:44.874Z,1.60
2023-10-15T11:39:20.491Z,1.40
2023-10-15T11:41:53.311Z,1.90
2023-10-15T11:44:30.078Z,1.60
2023-10-15T11:47:10.860Z,1.50
2023-10-15T11:49:47.032Z,1.50
2023-10-15T11:52:23.088Z,1.40
2023-10-15T11:54:55.716Z,1.50
2023-10-15T11:57:28.704Z,1.40
2023-10-15T12:00:00.878Z,1.40
2023-10-15T12:02:35.903Z,1.90
2023-10-15T12:05:10.853Z,1.50
2023-10-15T12:07:43.766Z,1.50
2023-10-15T12:10:16.530Z,1.40
2023-10-15T12:12:50.665Z,1.60
2023-10-15T12:15:22.429Z,1.20
2023-10-15T12:17:54.153Z,1.30
2023-10-15T12:20:28.383Z,1.20
2023-10-15T12:25:31.001Z,1.60
2023-10-15T12:28:02.956Z,1.50
2023-10-15T12:30:35.060Z,1.40
2023-10-15T12:33:08.868Z,1.50
2023-10-15T12:35:41.902Z,1.20
2023-10-15T12:38:18.289Z,1.10
2023-10-15T12:40:50.461Z,1.20
2023-10-15T12:43:23.011Z,1.20
2023-10-15T12:45:55.383Z,1.10
2023-10-15T12:48:28.353Z,1.10
2023-10-15T12:51:00.966Z,1.40
2023-10-15T12:53:33.026Z,1.30
2023-10-15T12:56:06.083Z,0.90
2023-10-15T12:58:38.275Z,0.90
2023-10-15T13:01:12.336Z,1.10
2023-10-15T13:03:44.383Z,1.10
2023-10-15T13:06:17.122Z,1.30
2023-10-15T13:08:49.283Z,1.30
2023-10-15T13:11:21.279Z,1.00
2023-10-15T13:13:53.261Z,1.30
2023-10-15T13:16:25.071Z,1.50
2023-10-15T13:18:57.481Z,1.10
2023-10-15T13:21:30.098Z,1.20
2023-10-15T13:24:02.281Z,1.20
2023-10-15T13:26:34.592Z,1.10
2023-10-15T13:29:07.187Z,1.70
2023-10-15T13:31:39.316Z,1.60
2023-10-15T13:34:11.333Z,1.20
2023-10-15T13:36:47.049Z,1.10
2023-10-15T13:39:20.928Z,1.40
2023-10-15T13:41:52.824Z,1.40
2023-10-15T13:44:25.029Z,1.10
2023-10-15T13:46:57.120Z,1.50
2023-10-15T13:49:29.263Z,1.30
2023-10-15T13:52:01.188Z,1.80
2023-10-15T13:54:33.240Z,1.40
2023-10-15T13:57:06.070Z,1.50
2023-10-15T13:59:38.712Z,1.10
2023-10-15T14:02:13.860Z,1.30
2023-10-15T14:04:45.936Z,1.50
2023-10-15T14:07:18.653Z,1.20
2023-10-15T14:09:50.583Z,1.10
2023-10-15T14:12:22.434Z,1.40
2023-10-15T14:14:54.131Z,1.70
2023-10-15T14:17:26.438Z,1.30
2023-10-15T14:20:00.251Z,1.50
2023-10-15T14:22:32.871Z,1.20
2023-10-15T14:25:05.057Z,1.70
2023-10-15T14:27:37.854Z,1.60
2023-10-15T14:30:12.966Z,1.50
2023-10-15T14:32:45.076Z,1.40
2023-10-15T14:35:17.041Z,1.60
2023-10-15T14:37:49.046Z,2.00
2023-10-15T14:40:21.307Z,1.60
2023-10-15T14:42:54.722Z,1.60
2023-10-15T14:45:27.139Z,1.70
2023-10-15T14:47:59.423Z,1.00
2023-10-15T14:50:34.400Z,2.30
2023-10-15T14:53:09.759Z,1.40
2023-10-15T14:55:41.934Z,1.40
2023-10-15T14:58:13.934Z,1.50
2023-10-15T15:00:49.139Z,1.50
2023-10-15T15:03:23.159Z,1.80
2023-10-15T15:05:55.484Z,1.50
2023-10-15T15:08:27.268Z,1.70
2023-10-15T15:11:00.267Z,1.90
2023-10-15T15:13:32.044Z,1.40
2023-10-15T15:16:04.032Z,1.60
2023-10-15T15:18:36.024Z,1.60
2023-10-15T15:21:08.747Z,1.80
2023-10-15T15:23:40.932Z,1.60
2023-10-15T15:26:12.452Z,1.50
2023-10-15T15:28:44.137Z,2.00
2023-10-15T15:31:16.110Z,1.90
2023-10-15T15:33:48.258Z,1.80
2023-10-15T15:36:20.879Z,1.50
2023-10-15T15:38:56.332Z,1.90
2023-10-15T15:41:33.534Z,1.90
2023-10-15T15:44:06.540Z,2.00
2023-10-15T15:46:40.425Z,2.20
2023-10-15T15:49:12.866Z,1.50
2023-10-15T15:51:44.642Z,2.10
2023-10-15T15:54:16.934Z,2.00
2023-10-15T15:56:48.468Z,1.80
2023-10-15T15:59:20.291Z,2.00
2023-10-15T16:01:53.591Z,1.90
2023-10-15T16:04:26.571Z,2.00
2023-10-15T16:06:58.781Z,2.20
2023-10-15T16:09:30.645Z,1.80
2023-10-15T16:12:02.459Z,2.10
2023-10-15T16:14:37.108Z,2.20
2023-10-15T16:17:11.286Z,1.90
2023-10-15T16:19:43.237Z,2.00
2023-10-15T16:22:14.847Z,1.70
2023-10-15T16:24:56.279Z,1.90
2023-10-15T16:27:32.263Z,2.20
2023-10-15T16:30:04.704Z,2.20
2023-10-15T16:32:37.337Z,2.70
2023-10-15T16:35:12.888Z,1.80
2023-10-15T16:37:44.490Z,1.50
2023-10-15T16:40:18.335Z,1.70
2023-10-15T16:42:49.892Z,2.00
2023-10-15T16:45:21.838Z,1.80
2023-10-15T16:47:53.736Z,1.90
2023-10-15T16:50:26.157Z,1.80
2023-10-15T16:52:58.566Z,2.10
2023-10-15T16:55:30.611Z,2.00
2023-10-15T16:58:02.143Z,2.00
2023-10-15T17:00:35.157Z,2.10
2023-10-15T17:03:08.265Z,2.10
2023-10-15T17:05:41.342Z,2.20
2023-10-15T17:08:13.008Z,2.10
2023-10-15T17:10:50.685Z,1.80
2023-10-15T17:13:22.583Z,2.30
2023-10-15T17:15:54.343Z,2.60
2023-10-15T17:18:25.993Z,1.60
2023-10-15T17:20:57.743Z,2.00
2023-10-15T17:23:29.468Z,2.10
2023-10-15T17:26:01.673Z,1.90
2023-10-15T17:28:33.334Z,2.50
2023-10-15T17:31:05.411Z,1.90
2023-10-15T17:33:37.635Z,2.40
2023-10-15T17:36:10.884Z,3.20
2023-10-15T17:38:42.559Z,2.80
2023-10-15T17:41:14.185Z,2.40
2023-10-15T17:43:46.156Z,2.60
2023-10-15T17:46:18.076Z,2.50
2023-10-15T17:48:49.772Z,2.50
2023-10-15T17:51:21.403Z,2.70
2023-10-15T17:53:53.558Z,3.10
2023-10-15T17:56:25.547Z,4.00
2023-10-15T17:58:57.549Z,3.80
2023-10-15T18:01:29.273Z,4.20
2023-10-15T18:04:01.226Z,3.60
2023-10-15T18:06:33.192Z,4.10
2023-10-15T18:09:05.060Z,3.70
2023-10-15T18:11:36.874Z,3.20
2023-10-15T18:14:09.736Z,4.00
2023-10-15T18:16:41.559Z,3.50
2023-10-15T18:19:13.306Z,3.80
2023-10-15T18:21:45.263Z,3.30
2023-10-15T18:24:17.159Z,3.10
2023-10-15T18:26:49.269Z,3.70
2023-10-15T18:29:21.815Z,3.90
2023-10-15T18:31:55.357Z,4.10
2023-10-15T18:34:27.407Z,4.10
2023-10-15T18:36:59.306Z,3.80
2023-10-15T18:39:31.133Z,4.00
2023-10-15T18:42:03.374Z,3.90
2023-10-15T18:44:35.592Z,3.70
2023-10-15T18:47:08.590Z,3.90
2023-10-15T18:49:40.405Z,2.80
2023-10-15T18:52:12.805Z,3.70
2023-10-15T18:54:44.990Z,3.10
2023-10-15T18:57:17.108Z,2.80
2023-10-15T18:59:49.649Z,2.70
2023-10-15T19:02:21.451Z,3.60
2023-10-15T19:04:53.270Z,3.40
2023-10-15T19:07:25.474Z,2.90
2023-10-15T19:09:58.418Z,2.80
2023-10-15T19:12:34.792Z,3.00
2023-10-15T19:15:09.220Z,3.60
2023-10-15T19:17:41.672Z,2.70
2023-10-15T19:20:15.962Z,3.60
2023-10-15T19:22:48.864Z,3.10
2023-10-15T19:25:21.999Z,2.50
2023-10-15T19:27:54.568Z,3.50
2023-10-15T19:30:26.417Z,3.10
2023-10-15T19:32:58.446Z,3.30
2023-10-15T19:35:31.120Z,3.40
2023-10-15T19:38:05.929Z,4.00
2023-10-15T19:40:38.088Z,3.60
2023-10-15T19:43:10.361Z,2.60
2023-10-15T19:45:42.962Z,3.20
2023-10-15T19:48:16.447Z,3.70
2023-10-15T19:50:49.042Z,3.70
2023-10-15T19:53:21.942Z,4.10
2023-10-15T19:55:54.864Z,3.90
2023-10-15T19:58:27.958Z,4.10
2023-10-15T20:01:00.600Z,3.80
2023-10-15T20:03:35.427Z,3.10
2023-10-15T20:06:10.167Z,3.60
2023-10-15T20:08:43.718Z,3.30
2023-10-15T20:11:15.701Z,2.90
2023-10-15T20:13:47.659Z,3.30
2023-10-15T20:16:21.347Z,3.70
2023-10-15T20:18:53.684Z,3.00
2023-10-15T20:21:25.885Z,3.80
2023-10-15T20:23:58.183Z,4.20
2023-10-15T20:26:31.991Z,3.70
2023-10-15T20:29:04.378Z,3.40
2023-10-15T20:31:37.060Z,3.10
2023-10-15T20:34:09.495Z,2.80
2023-10-15T20:36:41.649Z,2.80
2023-10-15T20:39:20.444Z,4.10
2023-10-15T20:41:52.817Z,4.70
2023-10-15T20:44:25.969Z,4.50
2023-10-15T20:46:58.026Z,5.40
2023-10-15T20:49:30.242Z,4.90
2023-10-15T20:52:02.073Z,3.30
2023-10-15T20:54:33.950Z,3.40
2023-10-15T20:57:05.959Z,3.40
2023-10-15T20:59:37.950Z,4.00
2023-10-15T21:02:10.098Z,3.50
2023-10-15T21:04:41.823Z,4.00
2023-10-15T21:07:13.666Z,3.30
2023-10-15T21:09:46.130Z,2.90
2023-10-15T21:12:18.113Z,3.60
2023-10-15T21:14:49.828Z,3.90
2023-10-15T21:17:21.745Z,3.00
2023-10-15T21:19:55.991Z,2.80
2023-10-15T21:22:29.944Z,2.80
2023-10-15T21:25:01.963Z,2.70
2023-10-15T21:27:33.793Z,3.30
2023-10-15T21:30:08.126Z,3.10
2023-10-15T21:32:40.719Z,2.80
2023-10-15T21:35:13.189Z,4.10
2023-10-15T21:37:45.006Z,5.00
2023-10-15T21:40:17.524Z,2.80
2023-10-15T21:42:49.301Z,3.50
2023-10-15T21:45:20.973Z,4.00
2023-10-15T21:47:53.103Z,4.20
2023-10-15T21:50:25.202Z,3.90
2023-10-15T21:52:57.794Z,4.40
2023-10-15T21:55:31.952Z,4.20
2023-10-15T21:58:04.452Z,4.00
2023-10-15T22:00:39.629Z,3.90
2023-10-15T22:03:13.256Z,4.30
2023-10-15T22:05:45.513Z,4.00
2023-10-15T22:08:17.315Z,4.60
2023-10-15T22:10:49.249Z,4.30
2023-10-15T22:13:21.113Z,3.90
2023-10-15T22:15:54.388Z,4.20
2023-10-15T22:18:28.339Z,4.50
2023-10-15T22:21:06.841Z,3.80
2023-10-15T22:23:38.988Z,3.50
2023-10-15T22:26:12.301Z,4.50
2023-10-15T22:28:44.364Z,3.20
2023-10-15T22:31:17.656Z,3.60
2023-10-15T22:33:49.705Z,3.90
2023-10-15T22:36:23.198Z,3.80
2023-10-15T22:38:55.273Z,3.60
2023-10-15T22:41:27.484Z,2.40
2023-10-15T22:43:59.508Z,2.60
2023-10-15T22:46:31.524Z,3.30
2023-10-15T22:49:03.458Z,2.80
2023-10-15T22:51:35.525Z,2.60
2023-10-15T22:54:08.137Z,2.60
2023-10-15T22:56:39.912Z,3.10
2023-10-15T22:59:11.451Z,3.20
2023-10-15T23:01:44.626Z,3.60
2023-10-15T23:04:16.596Z,4.00
2023-10-15T23:06:48.433Z,4.10
2023-10-15T23:09:20.028Z,3.60
2023-10-15T23:11:52.590Z,4.10
2023-10-15T23:14:24.330Z,3.90
2023-10-15T23:17:01.755Z,4.10
2023-10-15T23:19:33.639Z,4.40
2023-10-15T23:22:10.973Z,4.10
2023-10-15T23:24:42.862Z,3.80
2023-10-15T23:27:14.710Z,3.90
2023-10-15T23:29:46.446Z,3.80
2023-10-15T23:32:21.206Z,3.80
2023-10-15T23:34:52.926Z,4.10
2023-10-15T23:37:24.883Z,3.90
2023-10-15T23:39:56.966Z,3.90
2023-10-15T23:42:28.775Z,3.90
2023-10-15T23:45:07.233Z,3.70
2023-10-15T23:47:41.120Z,4.10
2023-10-15T23:50:16.386Z,4.00
2023-10-15T23:55:19.859Z,3.80
2023-10-15T23:57:51.442Z,2.80
